Etusivu
METAR-TAF:

METAR-TAF

Lentoasemat :

Abu Simbel, Egypti

Leveyspiiri: 22-22-33N, Pituuspiiri: 31-36-42E, korkeus merenpinnasta: 188 m

Tämänhetkinen sää

Tämä raportti tehtiin 2 tuntia ja 13 minuuttia sitten, kello 04.00 UTC
Tuuli 2 kn luoteesta
Lämpötila 10°C
Kosteus 53%
Ilmanpaine 1018 hPa
Näkyvyys 10 km tai enemmän
ei pilviä alle 1500 m:ssä eikä cumulonimbus-pilviä

METAR: HEBL 150400Z 32002KT CAVOK 10/01 Q1018 NOSIG

Aika: 08:13 (06:13 UTC)

Sääennuste

Tämä raportti tehtiin 1 tunti ja 13 minuuttia sitten, kello 05.00 UTC
Ennuste voimassa 15. päivästä klo 06 UTC - 16. päivään klo 12 UTC
Tuuli 8 kn pohjoisesta
Näkyvyys 10 km tai enemmän
ei pilviä alle 1500 m:ssä eikä cumulonimbus-pilviä
Ajoittain
15. päivästä klo 06 UTC - 15. päivään klo 12 UTC
Näkyvyys: 3000 m
usvaa

TAF: HEBL 150500Z 1506/1612 35008KT CAVOK TEMPO 1506/1512 3000 HZ NSC

Säähavainnot ja -ennusteet yli 4000 lentoasemalta (METAR- ja TAF-raportit).

Käytössä olevat sääasemat on merkitty karttaan keltaisilla ja punaisilla pisteillä.

Aseta hiiri pisteen päälle nähdäksesi sääaseman nimen.

Klikkaa sitten nähdäksesi säähavainnot ja -ennusteet.

Kartan vaihtaminen: klikkaa mustalla rastilla varustettuja vihreitä pisteitä, niin voit zoomata sisään; viivalla varustettua vihreää pistettä, niin voit zoomata ulos tai vihreitä nuolia, niin pääset viereisille kartoille.


METAR-TAF: